Terminal Aerodrome Forecast
Issued by NWS

Home | Current Version | Previous Version | Text Only | Print | Product List | Glossary On
Versions: 1 2 3 4 5 6 7 8 9 10 11 12 13
000
FTUS43 KSGF 140100 AAA
TAFBBG
TAF AMD
KBBG 140155Z 1402/1424 18005KT P6SM SCT110 BKN250
     FM140300 VRB04KT P6SM VCSH FEW050 SCT100 BKN150
     FM141500 27005KT P6SM SCT250
     FM141900 30008KT P6SM SCT040 BKN250 PROB30 1420/1423 6SM -TSRA
      BKN040CB
     FM142300 34008KT P6SM SCT250=

USA.gov is the U.S. government's official web portal to all federal, state and local government web resources and services.